sensor_id;sensor_type;location;lat;lon;timestamp;temperature;humidity
22249;DHT22;67538;52.180;5.646;2024-01-15T00:00:18;1.30;99.90
22249;DHT22;67538;52.180;5.646;2024-01-15T00:02:47;1.30;99.90
22249;DHT22;67538;52.180;5.646;2024-01-15T00:05:14;1.30;99.90
22249;DHT22;67538;52.180;5.646;2024-01-15T00:07:41;1.20;99.90
22249;DHT22;67538;52.180;5.646;2024-01-15T00:10:08;1.20;99.90
22249;DHT22;67538;52.180;5.646;2024-01-15T00:12:35;1.20;99.90
22249;DHT22;67538;52.180;5.646;2024-01-15T00:15:03;1.20;99.90
22249;DHT22;67538;52.180;5.646;2024-01-15T00:17:30;1.20;99.90
22249;DHT22;67538;52.180;5.646;2024-01-15T00:19:59;1.20;99.90
22249;DHT22;67538;52.180;5.646;2024-01-15T00:22:26;1.10;99.90
22249;DHT22;67538;52.180;5.646;2024-01-15T00:24:53;1.10;99.90
22249;DHT22;67538;52.180;5.646;2024-01-15T00:27:20;1.00;99.90
22249;DHT22;67538;52.180;5.646;2024-01-15T00:29:47;1.10;99.90
22249;DHT22;67538;52.180;5.646;2024-01-15T00:32:16;1.10;99.90
22249;DHT22;67538;52.180;5.646;2024-01-15T00:34:43;1.10;99.90
22249;DHT22;67538;52.180;5.646;2024-01-15T00:37:11;1.10;99.90
22249;DHT22;67538;52.180;5.646;2024-01-15T00:39:38;1.10;99.90
22249;DHT22;67538;52.180;5.646;2024-01-15T00:42:06;1.10;99.90
22249;DHT22;67538;52.180;5.646;2024-01-15T00:44:33;1.00;99.90
22249;DHT22;67538;52.180;5.646;2024-01-15T00:47:00;1.00;99.90
22249;DHT22;67538;52.180;5.646;2024-01-15T00:49:27;1.00;99.90
22249;DHT22;67538;52.180;5.646;2024-01-15T00:51:54;0.90;99.90
22249;DHT22;67538;52.180;5.646;2024-01-15T00:54:23;1.00;99.90
22249;DHT22;67538;52.180;5.646;2024-01-15T00:56:50;1.00;99.90
22249;DHT22;67538;52.180;5.646;2024-01-15T00:59:17;0.90;99.90
22249;DHT22;67538;52.180;5.646;2024-01-15T01:01:46;0.90;99.90
22249;DHT22;67538;52.180;5.646;2024-01-15T01:04:13;0.90;99.90
22249;DHT22;67538;52.180;5.646;2024-01-15T01:06:40;0.80;99.90
22249;DHT22;67538;52.180;5.646;2024-01-15T01:09:07;0.80;99.90
22249;DHT22;67538;52.180;5.646;2024-01-15T01:11:35;0.80;99.90
22249;DHT22;67538;52.180;5.646;2024-01-15T01:14:02;0.80;99.90
22249;DHT22;67538;52.180;5.646;2024-01-15T01:16:29;0.80;99.90
22249;DHT22;67538;52.180;5.646;2024-01-15T01:18:57;0.90;99.90
22249;DHT22;67538;52.180;5.646;2024-01-15T01:21:24;0.90;99.90
22249;DHT22;67538;52.180;5.646;2024-01-15T01:23:51;0.90;99.90
22249;DHT22;67538;52.180;5.646;2024-01-15T01:26:18;0.80;99.90
22249;DHT22;67538;52.180;5.646;2024-01-15T01:28:47;0.80;99.90
22249;DHT22;67538;52.180;5.646;2024-01-15T01:31:14;0.70;99.90
22249;DHT22;67538;52.180;5.646;2024-01-15T01:33:42;0.80;99.90
22249;DHT22;67538;52.180;5.646;2024-01-15T01:36:09;0.80;99.90
22249;DHT22;67538;52.180;5.646;2024-01-15T01:38:36;0.90;99.90
22249;DHT22;67538;52.180;5.646;2024-01-15T01:41:03;1.00;99.90
22249;DHT22;67538;52.180;5.646;2024-01-15T01:43:30;1.00;99.90
22249;DHT22;67538;52.180;5.646;2024-01-15T01:46:00;1.10;99.90
22249;DHT22;67538;52.180;5.646;2024-01-15T01:48:30;1.00;99.90
22249;DHT22;67538;52.180;5.646;2024-01-15T01:50:59;1.10;99.90
22249;DHT22;67538;52.180;5.646;2024-01-15T01:53:27;1.10;99.90
22249;DHT22;67538;52.180;5.646;2024-01-15T01:55:57;1.10;99.90
22249;DHT22;67538;52.180;5.646;2024-01-15T01:58:24;1.00;99.90
22249;DHT22;67538;52.180;5.646;2024-01-15T02:00:53;1.00;99.90
22249;DHT22;67538;52.180;5.646;2024-01-15T02:03:22;1.00;99.90
22249;DHT22;67538;52.180;5.646;2024-01-15T02:05:49;0.90;99.90
22249;DHT22;67538;52.180;5.646;2024-01-15T02:08:16;0.90;99.90
22249;DHT22;67538;52.180;5.646;2024-01-15T02:10:43;0.80;99.90
22249;DHT22;67538;52.180;5.646;2024-01-15T02:13:10;0.80;99.90
22249;DHT22;67538;52.180;5.646;2024-01-15T02:15:37;0.80;99.90
22249;DHT22;67538;52.180;5.646;2024-01-15T02:18:06;0.80;99.90
22249;DHT22;67538;52.180;5.646;2024-01-15T02:20:35;0.90;99.90
22249;DHT22;67538;52.180;5.646;2024-01-15T02:23:08;0.90;99.90
22249;DHT22;67538;52.180;5.646;2024-01-15T02:25:37;0.90;99.90
22249;DHT22;67538;52.180;5.646;2024-01-15T02:28:05;0.90;99.90
22249;DHT22;67538;52.180;5.646;2024-01-15T02:30:32;1.00;99.90
22249;DHT22;67538;52.180;5.646;2024-01-15T02:33:01;1.00;99.90
22249;DHT22;67538;52.180;5.646;2024-01-15T02:35:28;1.00;99.90
22249;DHT22;67538;52.180;5.646;2024-01-15T02:37:55;1.10;99.90
22249;DHT22;67538;52.180;5.646;2024-01-15T02:40:24;1.10;99.90
22249;DHT22;67538;52.180;5.646;2024-01-15T02:42:51;1.10;99.90
22249;DHT22;67538;52.180;5.646;2024-01-15T02:45:18;1.10;99.90
22249;DHT22;67538;52.180;5.646;2024-01-15T02:47:45;1.00;99.90
22249;DHT22;67538;52.180;5.646;2024-01-15T02:50:12;1.00;99.90
22249;DHT22;67538;52.180;5.646;2024-01-15T02:52:40;1.00;99.90
22249;DHT22;67538;52.180;5.646;2024-01-15T02:55:08;1.00;99.90
22249;DHT22;67538;52.180;5.646;2024-01-15T02:57:36;1.00;99.90
22249;DHT22;67538;52.180;5.646;2024-01-15T03:00:04;1.00;99.90
22249;DHT22;67538;52.180;5.646;2024-01-15T03:02:33;1.00;99.90
22249;DHT22;67538;52.180;5.646;2024-01-15T03:05:00;1.00;99.90
22249;DHT22;67538;52.180;5.646;2024-01-15T03:07:28;1.00;99.90
22249;DHT22;67538;52.180;5.646;2024-01-15T03:09:55;1.00;99.90
22249;DHT22;67538;52.180;5.646;2024-01-15T03:12:22;1.10;99.90
22249;DHT22;67538;52.180;5.646;2024-01-15T03:14:51;1.10;99.90
22249;DHT22;67538;52.180;5.646;2024-01-15T03:17:18;1.00;99.90
22249;DHT22;67538;52.180;5.646;2024-01-15T03:19:45;1.10;99.90
22249;DHT22;67538;52.180;5.646;2024-01-15T03:22:12;1.00;99.90
22249;DHT22;67538;52.180;5.646;2024-01-15T03:24:39;1.10;99.90
22249;DHT22;67538;52.180;5.646;2024-01-15T03:27:06;1.10;99.90
22249;DHT22;67538;52.180;5.646;2024-01-15T03:29:33;1.30;99.90
22249;DHT22;67538;52.180;5.646;2024-01-15T03:32:02;1.40;99.90
22249;DHT22;67538;52.180;5.646;2024-01-15T03:34:29;1.40;99.90
22249;DHT22;67538;52.180;5.646;2024-01-15T03:36:56;1.50;99.90
22249;DHT22;67538;52.180;5.646;2024-01-15T03:39:24;1.60;99.90
22249;DHT22;67538;52.180;5.646;2024-01-15T03:41:51;1.60;99.90
22249;DHT22;67538;52.180;5.646;2024-01-15T03:44:18;1.50;99.90
22249;DHT22;67538;52.180;5.646;2024-01-15T03:46:45;1.50;99.90
22249;DHT22;67538;52.180;5.646;2024-01-15T03:49:14;1.50;99.90
22249;DHT22;67538;52.180;5.646;2024-01-15T03:51:41;1.50;99.90
22249;DHT22;67538;52.180;5.646;2024-01-15T03:54:08;1.50;99.90
22249;DHT22;67538;52.180;5.646;2024-01-15T03:56:35;1.50;99.90
22249;DHT22;67538;52.180;5.646;2024-01-15T03:59:02;1.40;99.90
22249;DHT22;67538;52.180;5.646;2024-01-15T04:01:29;1.40;99.90
22249;DHT22;67538;52.180;5.646;2024-01-15T04:03:56;1.30;99.90
22249;DHT22;67538;52.180;5.646;2024-01-15T04:06:24;1.30;99.90
22249;DHT22;67538;52.180;5.646;2024-01-15T04:08:51;1.20;99.90
22249;DHT22;67538;52.180;5.646;2024-01-15T04:11:18;1.20;99.90
22249;DHT22;67538;52.180;5.646;2024-01-15T04:13:46;1.10;99.90
22249;DHT22;67538;52.180;5.646;2024-01-15T04:16:13;1.10;99.90
22249;DHT22;67538;52.180;5.646;2024-01-15T04:18:40;1.10;99.90
22249;DHT22;67538;52.180;5.646;2024-01-15T04:21:07;1.00;99.90
22249;DHT22;67538;52.180;5.646;2024-01-15T04:23:35;1.00;99.90
22249;DHT22;67538;52.180;5.646;2024-01-15T04:26:03;1.00;99.90
22249;DHT22;67538;52.180;5.646;2024-01-15T04:28:30;1.00;99.90
22249;DHT22;67538;52.180;5.646;2024-01-15T04:30:57;1.00;99.90
22249;DHT22;67538;52.180;5.646;2024-01-15T04:33:24;0.90;99.90
22249;DHT22;67538;52.180;5.646;2024-01-15T04:35:51;1.00;99.90
22249;DHT22;67538;52.180;5.646;2024-01-15T04:38:18;0.90;99.90
22249;DHT22;67538;52.180;5.646;2024-01-15T04:40:46;1.00;99.90
22249;DHT22;67538;52.180;5.646;2024-01-15T04:43:13;1.00;99.90
22249;DHT22;67538;52.180;5.646;2024-01-15T04:45:41;1.00;99.90
22249;DHT22;67538;52.180;5.646;2024-01-15T04:48:08;1.00;99.90
22249;DHT22;67538;52.180;5.646;2024-01-15T04:50:35;1.00;99.90
22249;DHT22;67538;52.180;5.646;2024-01-15T04:53:02;1.00;99.90
22249;DHT22;67538;52.180;5.646;2024-01-15T04:55:29;1.00;99.90
22249;DHT22;67538;52.180;5.646;2024-01-15T04:57:57;1.00;99.90
22249;DHT22;67538;52.180;5.646;2024-01-15T05:00:25;1.00;99.90
22249;DHT22;67538;52.180;5.646;2024-01-15T05:02:53;1.00;99.90
22249;DHT22;67538;52.180;5.646;2024-01-15T05:05:21;1.00;99.90
22249;DHT22;67538;52.180;5.646;2024-01-15T05:07:48;1.00;99.90
22249;DHT22;67538;52.180;5.646;2024-01-15T05:10:15;1.10;99.90
22249;DHT22;67538;52.180;5.646;2024-01-15T05:12:43;1.10;99.90
22249;DHT22;67538;52.180;5.646;2024-01-15T05:15:11;1.10;99.90
22249;DHT22;67538;52.180;5.646;2024-01-15T05:17:38;1.10;99.90
22249;DHT22;67538;52.180;5.646;2024-01-15T05:20:06;1.20;99.90
22249;DHT22;67538;52.180;5.646;2024-01-15T05:22:33;1.10;99.90
22249;DHT22;67538;52.180;5.646;2024-01-15T05:25:00;1.20;99.90
22249;DHT22;67538;52.180;5.646;2024-01-15T05:27:27;1.20;99.90
22249;DHT22;67538;52.180;5.646;2024-01-15T05:29:54;1.20;99.90
22249;DHT22;67538;52.180;5.646;2024-01-15T05:32:23;1.20;99.90
22249;DHT22;67538;52.180;5.646;2024-01-15T05:34:50;1.20;99.90
22249;DHT22;67538;52.180;5.646;2024-01-15T05:37:17;1.20;99.90
22249;DHT22;67538;52.180;5.646;2024-01-15T05:39:44;1.20;99.90
22249;DHT22;67538;52.180;5.646;2024-01-15T05:42:11;1.20;99.90
22249;DHT22;67538;52.180;5.646;2024-01-15T05:44:38;1.30;99.90
22249;DHT22;67538;52.180;5.646;2024-01-15T05:47:05;1.30;99.90
22249;DHT22;67538;52.180;5.646;2024-01-15T05:49:34;1.30;99.90
22249;DHT22;67538;52.180;5.646;2024-01-15T05:52:01;1.30;99.90
22249;DHT22;67538;52.180;5.646;2024-01-15T05:54:29;1.40;99.90
22249;DHT22;67538;52.180;5.646;2024-01-15T05:56:56;1.40;99.90
22249;DHT22;67538;52.180;5.646;2024-01-15T05:59:23;1.40;99.90
22249;DHT22;67538;52.180;5.646;2024-01-15T06:01:51;1.40;99.90
22249;DHT22;67538;52.180;5.646;2024-01-15T06:04:18;1.40;99.90
22249;DHT22;67538;52.180;5.646;2024-01-15T06:06:46;1.40;99.90
22249;DHT22;67538;52.180;5.646;2024-01-15T06:09:13;1.30;99.90
22249;DHT22;67538;52.180;5.646;2024-01-15T06:11:40;1.30;99.90
22249;DHT22;67538;52.180;5.646;2024-01-15T06:14:07;1.30;99.90
22249;DHT22;67538;52.180;5.646;2024-01-15T06:16:34;1.20;99.90
22249;DHT22;67538;52.180;5.646;2024-01-15T06:19:01;1.20;99.90
22249;DHT22;67538;52.180;5.646;2024-01-15T06:21:29;1.10;99.90
22249;DHT22;67538;52.180;5.646;2024-01-15T06:23:57;1.10;99.90
22249;DHT22;67538;52.180;5.646;2024-01-15T06:26:24;1.10;99.90
22249;DHT22;67538;52.180;5.646;2024-01-15T06:28:51;1.10;99.90
22249;DHT22;67538;52.180;5.646;2024-01-15T06:31:18;1.00;99.90
22249;DHT22;67538;52.180;5.646;2024-01-15T06:33:45;1.00;99.90
22249;DHT22;67538;52.180;5.646;2024-01-15T06:36:14;0.90;99.90
22249;DHT22;67538;52.180;5.646;2024-01-15T06:38:42;0.90;99.90
22249;DHT22;67538;52.180;5.646;2024-01-15T06:41:11;0.90;99.90
22249;DHT22;67538;52.180;5.646;2024-01-15T06:43:38;0.90;99.90
22249;DHT22;67538;52.180;5.646;2024-01-15T06:46:05;0.90;99.90
22249;DHT22;67538;52.180;5.646;2024-01-15T06:48:32;0.90;99.90
22249;DHT22;67538;52.180;5.646;2024-01-15T06:50:59;0.90;99.90
22249;DHT22;67538;52.180;5.646;2024-01-15T06:53:26;0.90;99.90
22249;DHT22;67538;52.180;5.646;2024-01-15T06:55:53;0.90;99.90
22249;DHT22;67538;52.180;5.646;2024-01-15T06:58:22;0.90;99.90
22249;DHT22;67538;52.180;5.646;2024-01-15T07:00:49;0.90;99.90
22249;DHT22;67538;52.180;5.646;2024-01-15T07:03:16;0.80;99.90
22249;DHT22;67538;52.180;5.646;2024-01-15T07:05:43;0.80;99.90
22249;DHT22;67538;52.180;5.646;2024-01-15T07:08:11;0.80;99.90
22249;DHT22;67538;52.180;5.646;2024-01-15T07:10:38;0.80;99.90
22249;DHT22;67538;52.180;5.646;2024-01-15T07:13:05;0.80;99.90
22249;DHT22;67538;52.180;5.646;2024-01-15T07:15:33;0.80;99.90
22249;DHT22;67538;52.180;5.646;2024-01-15T07:18:00;0.80;99.90
22249;DHT22;67538;52.180;5.646;2024-01-15T07:20:27;0.80;99.90
22249;DHT22;67538;52.180;5.646;2024-01-15T07:22:54;0.80;99.90
22249;DHT22;67538;52.180;5.646;2024-01-15T07:25:22;0.80;99.90
22249;DHT22;67538;52.180;5.646;2024-01-15T07:27:51;0.70;99.90
22249;DHT22;67538;52.180;5.646;2024-01-15T07:30:19;0.80;99.90
22249;DHT22;67538;52.180;5.646;2024-01-15T07:32:48;0.80;99.90
22249;DHT22;67538;52.180;5.646;2024-01-15T07:35:17;0.80;99.90
22249;DHT22;67538;52.180;5.646;2024-01-15T07:37:44;0.80;99.90
22249;DHT22;67538;52.180;5.646;2024-01-15T07:40:11;0.80;99.90
22249;DHT22;67538;52.180;5.646;2024-01-15T07:42:38;0.80;99.90
22249;DHT22;67538;52.180;5.646;2024-01-15T07:45:06;0.80;99.90
22249;DHT22;67538;52.180;5.646;2024-01-15T07:47:33;0.80;99.90
22249;DHT22;67538;52.180;5.646;2024-01-15T07:50:01;0.80;99.90
22249;DHT22;67538;52.180;5.646;2024-01-15T07:52:30;0.80;99.90
22249;DHT22;67538;52.180;5.646;2024-01-15T07:54:57;0.80;99.90
22249;DHT22;67538;52.180;5.646;2024-01-15T07:57:25;0.80;99.90
22249;DHT22;67538;52.180;5.646;2024-01-15T07:59:53;0.90;99.90
22249;DHT22;67538;52.180;5.646;2024-01-15T08:02:20;0.80;99.90
22249;DHT22;67538;52.180;5.646;2024-01-15T08:04:47;0.90;99.90
22249;DHT22;67538;52.180;5.646;2024-01-15T08:07:16;0.90;99.90
22249;DHT22;67538;52.180;5.646;2024-01-15T08:09:43;0.90;99.90
22249;DHT22;67538;52.180;5.646;2024-01-15T08:12:12;0.90;99.90
22249;DHT22;67538;52.180;5.646;2024-01-15T08:14:39;0.80;99.90
22249;DHT22;67538;52.180;5.646;2024-01-15T08:17:06;0.80;99.90
22249;DHT22;67538;52.180;5.646;2024-01-15T08:19:33;0.80;99.90
22249;DHT22;67538;52.180;5.646;2024-01-15T08:22:00;0.80;99.90
22249;DHT22;67538;52.180;5.646;2024-01-15T08:24:28;0.80;99.90
22249;DHT22;67538;52.180;5.646;2024-01-15T08:26:57;0.80;99.90
22249;DHT22;67538;52.180;5.646;2024-01-15T08:29:24;0.80;99.90
22249;DHT22;67538;52.180;5.646;2024-01-15T08:31:51;0.80;99.90
22249;DHT22;67538;52.180;5.646;2024-01-15T08:34:18;0.80;99.90
22249;DHT22;67538;52.180;5.646;2024-01-15T08:36:45;0.80;99.90
22249;DHT22;67538;52.180;5.646;2024-01-15T08:39:12;0.90;99.90
22249;DHT22;67538;52.180;5.646;2024-01-15T08:41:41;0.90;99.90
22249;DHT22;67538;52.180;5.646;2024-01-15T08:44:08;0.80;99.90
22249;DHT22;67538;52.180;5.646;2024-01-15T08:46:35;0.80;99.90
22249;DHT22;67538;52.180;5.646;2024-01-15T08:49:03;0.80;99.90
22249;DHT22;67538;52.180;5.646;2024-01-15T08:51:31;0.80;99.90
22249;DHT22;67538;52.180;5.646;2024-01-15T08:53:58;0.80;99.90
22249;DHT22;67538;52.180;5.646;2024-01-15T08:56:25;0.80;99.90
22249;DHT22;67538;52.180;5.646;2024-01-15T08:58:55;0.80;99.90
22249;DHT22;67538;52.180;5.646;2024-01-15T09:01:22;0.90;99.90
22249;DHT22;67538;52.180;5.646;2024-01-15T09:03:50;0.90;99.90
22249;DHT22;67538;52.180;5.646;2024-01-15T09:06:17;1.10;99.90
22249;DHT22;67538;52.180;5.646;2024-01-15T09:08:45;1.70;99.90
22249;DHT22;67538;52.180;5.646;2024-01-15T09:11:12;3.30;99.90
22249;DHT22;67538;52.180;5.646;2024-01-15T09:13:39;5.10;99.90
22249;DHT22;67538;52.180;5.646;2024-01-15T09:16:07;5.70;99.90
22249;DHT22;67538;52.180;5.646;2024-01-15T09:18:34;6.50;99.90
22249;DHT22;67538;52.180;5.646;2024-01-15T09:21:03;6.10;99.90
22249;DHT22;67538;52.180;5.646;2024-01-15T09:23:30;4.60;99.90
22249;DHT22;67538;52.180;5.646;2024-01-15T09:25:57;3.30;99.90
22249;DHT22;67538;52.180;5.646;2024-01-15T09:28:25;3.00;99.90
22249;DHT22;67538;52.180;5.646;2024-01-15T09:30:52;2.60;99.90
22249;DHT22;67538;52.180;5.646;2024-01-15T09:33:20;2.30;99.90
22249;DHT22;67538;52.180;5.646;2024-01-15T09:35:47;2.30;99.90
22249;DHT22;67538;52.180;5.646;2024-01-15T09:38:14;2.20;99.90
22249;DHT22;67538;52.180;5.646;2024-01-15T09:40:43;2.10;99.90
22249;DHT22;67538;52.180;5.646;2024-01-15T09:43:12;2.00;99.90
22249;DHT22;67538;52.180;5.646;2024-01-15T09:45:40;2.00;99.90
22249;DHT22;67538;52.180;5.646;2024-01-15T09:48:07;1.90;99.90
22249;DHT22;67538;52.180;5.646;2024-01-15T09:50:36;1.90;99.90
22249;DHT22;67538;52.180;5.646;2024-01-15T09:53:04;2.30;99.90
22249;DHT22;67538;52.180;5.646;2024-01-15T09:55:32;3.00;99.90
22249;DHT22;67538;52.180;5.646;2024-01-15T09:58:00;3.50;99.90
22249;DHT22;67538;52.180;5.646;2024-01-15T10:00:28;3.50;99.90
22249;DHT22;67538;52.180;5.646;2024-01-15T10:02:56;3.00;99.90
22249;DHT22;67538;52.180;5.646;2024-01-15T10:05:25;2.60;99.90
22249;DHT22;67538;52.180;5.646;2024-01-15T10:07:54;2.20;99.90
22249;DHT22;67538;52.180;5.646;2024-01-15T10:10:21;2.00;99.90
22249;DHT22;67538;52.180;5.646;2024-01-15T10:12:49;1.90;99.90
22249;DHT22;67538;52.180;5.646;2024-01-15T10:15:16;2.10;99.90
22249;DHT22;67538;52.180;5.646;2024-01-15T10:17:44;2.40;99.90
22249;DHT22;67538;52.180;5.646;2024-01-15T10:20:11;3.00;99.90
22249;DHT22;67538;52.180;5.646;2024-01-15T10:22:42;3.50;99.90
22249;DHT22;67538;52.180;5.646;2024-01-15T10:25:14;4.30;99.90
22249;DHT22;67538;52.180;5.646;2024-01-15T10:27:42;4.00;99.90
22249;DHT22;67538;52.180;5.646;2024-01-15T10:30:10;3.40;99.90
22249;DHT22;67538;52.180;5.646;2024-01-15T10:32:39;2.90;99.90
22249;DHT22;67538;52.180;5.646;2024-01-15T10:35:07;2.60;99.90
22249;DHT22;67538;52.180;5.646;2024-01-15T10:37:35;2.50;99.90
22249;DHT22;67538;52.180;5.646;2024-01-15T10:40:02;2.40;99.90
22249;DHT22;67538;52.180;5.646;2024-01-15T10:42:33;2.20;99.90
22249;DHT22;67538;52.180;5.646;2024-01-15T10:45:00;2.00;99.90
22249;DHT22;67538;52.180;5.646;2024-01-15T10:47:28;1.90;99.90
22249;DHT22;67538;52.180;5.646;2024-01-15T10:49:56;1.80;99.90
22249;DHT22;67538;52.180;5.646;2024-01-15T10:52:23;1.70;99.90
22249;DHT22;67538;52.180;5.646;2024-01-15T10:54:51;1.70;99.90
22249;DHT22;67538;52.180;5.646;2024-01-15T10:57:21;1.60;99.90
22249;DHT22;67538;52.180;5.646;2024-01-15T10:59:50;1.80;99.90
22249;DHT22;67538;52.180;5.646;2024-01-15T11:02:17;1.90;99.90
22249;DHT22;67538;52.180;5.646;2024-01-15T11:04:44;1.90;99.90
22249;DHT22;67538;52.180;5.646;2024-01-15T11:07:13;2.00;99.90
22249;DHT22;67538;52.180;5.646;2024-01-15T11:09:41;2.00;99.90
22249;DHT22;67538;52.180;5.646;2024-01-15T11:12:10;2.20;99.90
22249;DHT22;67538;52.180;5.646;2024-01-15T11:14:39;2.50;99.90
22249;DHT22;67538;52.180;5.646;2024-01-15T11:17:10;2.90;99.90
22249;DHT22;67538;52.180;5.646;2024-01-15T11:19:43;3.50;99.90
22249;DHT22;67538;52.180;5.646;2024-01-15T11:22:11;3.50;99.90
22249;DHT22;67538;52.180;5.646;2024-01-15T11:25:02;3.40;99.90
22249;DHT22;67538;52.180;5.646;2024-01-15T11:27:40;3.30;99.90
22249;DHT22;67538;52.180;5.646;2024-01-15T11:30:08;3.20;99.90
22249;DHT22;67538;52.180;5.646;2024-01-15T11:32:38;3.10;99.90
22249;DHT22;67538;52.180;5.646;2024-01-15T11:35:07;3.20;99.90
22249;DHT22;67538;52.180;5.646;2024-01-15T11:37:58;3.90;99.90
22249;DHT22;67538;52.180;5.646;2024-01-15T11:40:39;3.90;99.90
22249;DHT22;67538;52.180;5.646;2024-01-15T11:43:08;4.10;99.90
22249;DHT22;67538;52.180;5.646;2024-01-15T11:45:36;4.60;99.90
22249;DHT22;67538;52.180;5.646;2024-01-15T11:48:15;5.20;99.90
22249;DHT22;67538;52.180;5.646;2024-01-15T11:50:43;5.20;99.90
22249;DHT22;67538;52.180;5.646;2024-01-15T11:53:17;4.80;99.90
22249;DHT22;67538;52.180;5.646;2024-01-15T11:55:45;4.70;99.90
22249;DHT22;67538;52.180;5.646;2024-01-15T11:58:14;4.80;99.90
22249;DHT22;67538;52.180;5.646;2024-01-15T12:00:43;4.90;99.90
22249;DHT22;67538;52.180;5.646;2024-01-15T12:03:11;4.80;99.90
22249;DHT22;67538;52.180;5.646;2024-01-15T12:05:39;4.60;99.90
22249;DHT22;67538;52.180;5.646;2024-01-15T12:08:07;4.40;99.90
22249;DHT22;67538;52.180;5.646;2024-01-15T12:10:37;4.20;99.90
22249;DHT22;67538;52.180;5.646;2024-01-15T12:13:10;3.80;99.90
22249;DHT22;67538;52.180;5.646;2024-01-15T12:15:37;3.50;99.90
22249;DHT22;67538;52.180;5.646;2024-01-15T12:18:08;3.10;99.90
22249;DHT22;67538;52.180;5.646;2024-01-15T12:20:36;2.80;99.90
22249;DHT22;67538;52.180;5.646;2024-01-15T12:23:04;2.50;99.90
22249;DHT22;67538;52.180;5.646;2024-01-15T12:25:33;2.40;99.90
22249;DHT22;67538;52.180;5.646;2024-01-15T12:28:01;2.40;99.90
22249;DHT22;67538;52.180;5.646;2024-01-15T12:30:29;2.50;99.90
22249;DHT22;67538;52.180;5.646;2024-01-15T12:32:57;2.70;99.90
22249;DHT22;67538;52.180;5.646;2024-01-15T12:35:25;3.10;99.90
22249;DHT22;67538;52.180;5.646;2024-01-15T12:37:54;3.10;99.90
22249;DHT22;67538;52.180;5.646;2024-01-15T12:40:23;3.70;99.90
22249;DHT22;67538;52.180;5.646;2024-01-15T12:42:51;4.20;99.90
22249;DHT22;67538;52.180;5.646;2024-01-15T12:45:18;4.30;99.90
22249;DHT22;67538;52.180;5.646;2024-01-15T12:47:46;4.40;99.90
22249;DHT22;67538;52.180;5.646;2024-01-15T12:50:13;4.70;99.90
22249;DHT22;67538;52.180;5.646;2024-01-15T12:52:41;4.50;99.90
22249;DHT22;67538;52.180;5.646;2024-01-15T12:55:08;4.10;99.90
22249;DHT22;67538;52.180;5.646;2024-01-15T12:57:37;3.50;99.90
22249;DHT22;67538;52.180;5.646;2024-01-15T13:00:06;3.10;99.90
22249;DHT22;67538;52.180;5.646;2024-01-15T13:02:37;2.80;99.90
22249;DHT22;67538;52.180;5.646;2024-01-15T13:05:06;2.70;99.90
22249;DHT22;67538;52.180;5.646;2024-01-15T13:07:34;2.50;99.90
22249;DHT22;67538;52.180;5.646;2024-01-15T13:10:01;2.60;99.90
22249;DHT22;67538;52.180;5.646;2024-01-15T13:12:28;2.70;99.90
22249;DHT22;67538;52.180;5.646;2024-01-15T13:14:58;2.60;99.90
22249;DHT22;67538;52.180;5.646;2024-01-15T13:17:25;2.50;99.90
22249;DHT22;67538;52.180;5.646;2024-01-15T13:19:52;2.40;99.90
22249;DHT22;67538;52.180;5.646;2024-01-15T13:22:19;2.40;99.90
22249;DHT22;67538;52.180;5.646;2024-01-15T13:24:46;2.30;99.90
22249;DHT22;67538;52.180;5.646;2024-01-15T13:27:13;2.30;99.90
22249;DHT22;67538;52.180;5.646;2024-01-15T13:29:40;2.30;99.90
22249;DHT22;67538;52.180;5.646;2024-01-15T13:32:10;2.20;99.90
22249;DHT22;67538;52.180;5.646;2024-01-15T13:34:38;2.20;99.90
22249;DHT22;67538;52.180;5.646;2024-01-15T13:37:05;3.10;99.90
22249;DHT22;67538;52.180;5.646;2024-01-15T13:39:35;3.50;99.90
22249;DHT22;67538;52.180;5.646;2024-01-15T13:42:03;4.00;99.90
22249;DHT22;67538;52.180;5.646;2024-01-15T13:44:30;4.00;99.90
22249;DHT22;67538;52.180;5.646;2024-01-15T13:46:57;4.70;99.90
22249;DHT22;67538;52.180;5.646;2024-01-15T13:49:25;4.80;99.90
22249;DHT22;67538;52.180;5.646;2024-01-15T13:51:53;4.70;99.90
22249;DHT22;67538;52.180;5.646;2024-01-15T13:54:20;4.30;99.90
22249;DHT22;67538;52.180;5.646;2024-01-15T13:56:47;4.30;99.90
22249;DHT22;67538;52.180;5.646;2024-01-15T13:59:15;4.00;99.90
22249;DHT22;67538;52.180;5.646;2024-01-15T14:01:42;3.60;99.90
22249;DHT22;67538;52.180;5.646;2024-01-15T14:04:09;3.20;99.90
22249;DHT22;67538;52.180;5.646;2024-01-15T14:06:38;2.80;99.90
22249;DHT22;67538;52.180;5.646;2024-01-15T14:09:05;2.50;99.90
22249;DHT22;67538;52.180;5.646;2024-01-15T14:11:35;2.30;99.90
22249;DHT22;67538;52.180;5.646;2024-01-15T14:14:03;2.20;99.90
22249;DHT22;67538;52.180;5.646;2024-01-15T14:16:30;2.10;99.90
22249;DHT22;67538;52.180;5.646;2024-01-15T14:18:57;2.10;99.90
22249;DHT22;67538;52.180;5.646;2024-01-15T14:21:24;2.20;99.90
22249;DHT22;67538;52.180;5.646;2024-01-15T14:23:53;2.30;99.90
22249;DHT22;67538;52.180;5.646;2024-01-15T14:26:20;2.30;99.90
22249;DHT22;67538;52.180;5.646;2024-01-15T14:28:47;2.20;99.90
22249;DHT22;67538;52.180;5.646;2024-01-15T14:31:14;2.10;99.90
22249;DHT22;67538;52.180;5.646;2024-01-15T14:33:41;2.10;99.90
22249;DHT22;67538;52.180;5.646;2024-01-15T14:36:08;2.00;99.90
22249;DHT22;67538;52.180;5.646;2024-01-15T14:38:35;2.00;99.90
22249;DHT22;67538;52.180;5.646;2024-01-15T14:41:04;2.10;99.90
22249;DHT22;67538;52.180;5.646;2024-01-15T14:43:31;2.40;99.90
22249;DHT22;67538;52.180;5.646;2024-01-15T14:45:58;2.50;99.90
22249;DHT22;67538;52.180;5.646;2024-01-15T14:48:25;2.60;99.90
22249;DHT22;67538;52.180;5.646;2024-01-15T14:50:53;2.50;99.90
22249;DHT22;67538;52.180;5.646;2024-01-15T14:53:20;2.40;99.90
22249;DHT22;67538;52.180;5.646;2024-01-15T14:55:47;2.30;99.90
22249;DHT22;67538;52.180;5.646;2024-01-15T14:58:15;2.20;99.90
22249;DHT22;67538;52.180;5.646;2024-01-15T15:00:43;2.20;99.90
22249;DHT22;67538;52.180;5.646;2024-01-15T15:03:11;2.20;99.90
22249;DHT22;67538;52.180;5.646;2024-01-15T15:05:41;2.20;99.90
22249;DHT22;67538;52.180;5.646;2024-01-15T15:08:08;2.10;99.90
22249;DHT22;67538;52.180;5.646;2024-01-15T15:10:37;2.10;99.90
22249;DHT22;67538;52.180;5.646;2024-01-15T15:13:06;2.00;99.90
22249;DHT22;67538;52.180;5.646;2024-01-15T15:15:34;1.90;99.90
22249;DHT22;67538;52.180;5.646;2024-01-15T15:18:01;1.90;99.90
22249;DHT22;67538;52.180;5.646;2024-01-15T15:20:28;1.90;99.90
22249;DHT22;67538;52.180;5.646;2024-01-15T15:22:55;1.90;99.90
22249;DHT22;67538;52.180;5.646;2024-01-15T15:25:23;1.90;99.90
22249;DHT22;67538;52.180;5.646;2024-01-15T15:27:50;1.90;99.90
22249;DHT22;67538;52.180;5.646;2024-01-15T15:30:17;1.90;99.90
22249;DHT22;67538;52.180;5.646;2024-01-15T15:32:45;1.80;99.90
22249;DHT22;67538;52.180;5.646;2024-01-15T15:35:12;1.80;99.90
22249;DHT22;67538;52.180;5.646;2024-01-15T15:37:39;1.80;99.90
22249;DHT22;67538;52.180;5.646;2024-01-15T15:40:08;1.80;99.90
22249;DHT22;67538;52.180;5.646;2024-01-15T15:42:36;1.70;99.90
22249;DHT22;67538;52.180;5.646;2024-01-15T15:45:04;1.80;99.90
22249;DHT22;67538;52.180;5.646;2024-01-15T15:47:31;1.80;99.90